createdAt,value
2018-09-30T00:00:32.637Z,1018.11
2018-09-30T00:01:32.621Z,1018.14
2018-09-30T00:02:32.614Z,1018.18
2018-09-30T00:03:32.610Z,1018.18
2018-09-30T00:04:32.596Z,1018.14
2018-09-30T00:05:32.597Z,1018.20
2018-09-30T00:06:32.580Z,1018.19
2018-09-30T00:07:32.570Z,1018.22
2018-09-30T00:08:32.570Z,1018.18
2018-09-30T00:09:32.567Z,1018.16
2018-09-30T00:10:32.575Z,1018.16
2018-09-30T00:11:32.543Z,1018.16
2018-09-30T00:12:32.551Z,1018.16
2018-09-30T00:13:32.540Z,1018.13
2018-09-30T00:14:32.540Z,1018.13
2018-09-30T00:15:32.533Z,1018.13
2018-09-30T00:16:32.519Z,1018.10
2018-09-30T00:17:32.504Z,1018.12
2018-09-30T00:18:32.498Z,1018.14
2018-09-30T00:19:32.559Z,1018.16
2018-09-30T00:20:32.491Z,1018.13
2018-09-30T00:21:32.484Z,1018.11
2018-09-30T00:22:32.483Z,1018.10
2018-09-30T00:23:32.480Z,1018.08
2018-09-30T00:24:32.465Z,1018.10
2018-09-30T00:25:32.455Z,1018.04
2018-09-30T00:26:32.466Z,1018.04
2018-09-30T00:27:32.441Z,1018.02
2018-09-30T00:28:32.445Z,1018.04
2018-09-30T00:29:32.432Z,1017.97
2018-09-30T00:30:32.417Z,1017.97
2018-09-30T00:31:32.425Z,1017.97
2018-09-30T00:32:32.420Z,1018.00
2018-09-30T00:33:32.402Z,1017.98
2018-09-30T00:34:32.392Z,1017.95
2018-09-30T00:35:32.385Z,1017.93
2018-09-30T00:36:32.380Z,1017.95
2018-09-30T00:37:32.367Z,1017.97
2018-09-30T00:38:32.375Z,1017.95
2018-09-30T00:39:32.358Z,1017.91
2018-09-30T00:40:32.346Z,1017.88
2018-09-30T00:41:32.354Z,1017.87
2018-09-30T00:42:32.329Z,1017.88
2018-09-30T00:43:32.331Z,1017.84
2018-09-30T00:44:32.325Z,1017.83
2018-09-30T00:45:32.340Z,1017.81
2018-09-30T00:46:32.318Z,1017.77
2018-09-30T00:47:32.311Z,1017.78
2018-09-30T00:48:32.298Z,1017.77
2018-09-30T00:49:32.278Z,1017.74
2018-09-30T00:50:32.284Z,1017.68
2018-09-30T00:51:32.303Z,1017.68
2018-09-30T00:52:32.268Z,1017.67
2018-09-30T00:53:32.262Z,1017.65
2018-09-30T00:54:32.251Z,1017.63
2018-09-30T00:55:32.246Z,1017.62
2018-09-30T00:56:32.235Z,1017.60
2018-09-30T00:57:32.237Z,1017.58
2018-09-30T00:58:32.216Z,1017.57
2018-09-30T00:59:32.224Z,1017.53
2018-09-30T01:00:32.231Z,1017.50
2018-09-30T01:01:32.196Z,1017.47
2018-09-30T01:02:32.203Z,1017.49
2018-09-30T01:03:32.197Z,1017.49
2018-09-30T01:04:32.186Z,1017.48
2018-09-30T01:05:32.177Z,1017.49
2018-09-30T01:06:32.172Z,1017.47
2018-09-30T01:07:32.162Z,1017.45
2018-09-30T01:08:32.190Z,1017.46
2018-09-30T01:09:32.148Z,1017.45
2018-09-30T01:10:32.147Z,1017.45
2018-09-30T01:11:32.129Z,1017.40
2018-09-30T01:12:32.158Z,1017.38
2018-09-30T01:13:32.125Z,1017.36
2018-09-30T01:14:32.111Z,1017.37
2018-09-30T01:15:32.125Z,1017.36
2018-09-30T01:16:32.099Z,1017.33
2018-09-30T01:17:32.098Z,1017.34
2018-09-30T01:18:32.095Z,1017.30
2018-09-30T01:19:32.102Z,1017.32
2018-09-30T01:20:32.071Z,1017.32
2018-09-30T01:21:32.076Z,1017.32
2018-09-30T01:22:32.060Z,1017.29
2018-09-30T01:23:32.056Z,1017.25
2018-09-30T01:24:32.058Z,1017.25
2018-09-30T01:25:32.037Z,1017.24
2018-09-30T01:26:32.028Z,1017.19
2018-09-30T01:27:32.026Z,1017.18
2018-09-30T01:28:32.023Z,1017.19
2018-09-30T01:29:32.007Z,1017.21
2018-09-30T01:30:32.008Z,1017.13
2018-09-30T01:31:32.014Z,1017.16
2018-09-30T01:32:31.985Z,1017.12
2018-09-30T01:33:31.987Z,1017.10
2018-09-30T01:34:31.981Z,1017.11
2018-09-30T01:35:31.967Z,1017.12
2018-09-30T01:36:31.961Z,1017.13
2018-09-30T01:37:31.947Z,1017.10
2018-09-30T01:38:31.957Z,1017.07
2018-09-30T01:39:31.952Z,1017.05
2018-09-30T01:40:31.933Z,1017.06
2018-09-30T01:41:31.924Z,1017.05
2018-09-30T01:42:31.916Z,1017.03
2018-09-30T01:43:31.917Z,1017.06
2018-09-30T01:44:31.908Z,1017.05
2018-09-30T01:45:31.901Z,1017.02
2018-09-30T01:46:31.906Z,1016.98
2018-09-30T01:47:31.880Z,1016.97
2018-09-30T01:48:31.881Z,1016.99
2018-09-30T01:49:31.892Z,1016.99
2018-09-30T01:50:31.867Z,1017.00
2018-09-30T01:51:31.870Z,1016.98
2018-09-30T01:52:31.869Z,1016.97
2018-09-30T01:53:31.837Z,1016.93
2018-09-30T01:54:31.838Z,1016.94
2018-09-30T01:55:31.852Z,1016.92
2018-09-30T01:56:31.828Z,1016.93
2018-09-30T01:57:31.847Z,1016.94
2018-09-30T01:58:31.811Z,1016.87
2018-09-30T01:59:31.821Z,1016.89
2018-09-30T02:00:31.794Z,1016.88
2018-09-30T02:01:31.793Z,1016.86
2018-09-30T02:02:31.781Z,1016.86
2018-09-30T02:03:31.776Z,1016.85
2018-09-30T02:04:31.766Z,1016.78
2018-09-30T02:05:31.783Z,1016.83
2018-09-30T02:06:31.747Z,1016.83
2018-09-30T02:07:31.739Z,1016.79
2018-09-30T02:08:31.738Z,1016.78
2018-09-30T02:09:31.722Z,1016.80
2018-09-30T02:10:31.758Z,1016.79
2018-09-30T02:11:31.713Z,1016.83
2018-09-30T02:12:31.712Z,1016.81
2018-09-30T02:13:31.705Z,1016.80
2018-09-30T02:14:31.693Z,1016.80
2018-09-30T02:15:31.687Z,1016.78
2018-09-30T02:16:31.681Z,1016.77
2018-09-30T02:17:31.686Z,1016.75
2018-09-30T02:18:31.659Z,1016.69
2018-09-30T02:19:31.653Z,1016.69
2018-09-30T02:20:31.655Z,1016.66
2018-09-30T02:21:31.648Z,1016.70
2018-09-30T02:22:31.642Z,1016.69
2018-09-30T02:23:31.633Z,1016.65
2018-09-30T02:24:31.618Z,1016.69
2018-09-30T02:25:31.617Z,1016.64
2018-09-30T02:26:31.613Z,1016.62
2018-09-30T02:27:31.608Z,1016.61
2018-09-30T02:28:31.606Z,1016.63
2018-09-30T02:29:31.595Z,1016.62
2018-09-30T02:30:31.594Z,1016.60
2018-09-30T02:31:31.577Z,1016.64
2018-09-30T02:32:31.563Z,1016.60
2018-09-30T02:33:31.561Z,1016.62
2018-09-30T02:34:31.561Z,1016.61
2018-09-30T02:35:31.547Z,1016.62
2018-09-30T02:36:31.549Z,1016.61
2018-09-30T02:37:31.534Z,1016.64
2018-09-30T02:38:31.524Z,1016.63
2018-09-30T02:39:31.523Z,1016.63
2018-09-30T02:40:31.518Z,1016.65
2018-09-30T02:41:31.558Z,1016.63
2018-09-30T02:42:31.506Z,1016.63
2018-09-30T02:43:31.487Z,1016.66
2018-09-30T02:44:31.479Z,1016.64
2018-09-30T02:45:31.484Z,1016.63
2018-09-30T02:46:31.471Z,1016.68
2018-09-30T02:47:31.458Z,1016.64
2018-09-30T02:48:31.457Z,1016.64
2018-09-30T02:49:31.446Z,1016.66
2018-09-30T02:50:31.439Z,1016.64
2018-09-30T02:51:31.438Z,1016.65
2018-09-30T02:52:31.445Z,1016.62
2018-09-30T02:53:31.423Z,1016.57
2018-09-30T02:54:31.419Z,1016.53
2018-09-30T02:55:31.418Z,1016.54
2018-09-30T02:56:31.399Z,1016.48
2018-09-30T02:57:31.393Z,1016.48
2018-09-30T02:58:31.395Z,1016.47
2018-09-30T02:59:31.379Z,1016.46
2018-09-30T03:00:31.373Z,1016.43
2018-09-30T03:01:31.376Z,1016.46
2018-09-30T03:02:31.374Z,1016.46
2018-09-30T03:03:31.349Z,1016.43
2018-09-30T03:04:31.347Z,1016.40
2018-09-30T03:05:31.368Z,1016.41
2018-09-30T03:06:31.339Z,1016.38
2018-09-30T03:07:31.317Z,1016.31
2018-09-30T03:08:31.323Z,1016.29
2018-09-30T03:09:31.313Z,1016.28
2018-09-30T03:10:31.307Z,1016.23
2018-09-30T03:11:31.298Z,1016.28
2018-09-30T03:12:31.288Z,1016.27
2018-09-30T03:13:31.288Z,1016.23
2018-09-30T03:14:31.284Z,1016.24
2018-09-30T03:15:31.270Z,1016.20
2018-09-30T03:16:31.261Z,1016.17
2018-09-30T03:17:31.255Z,1016.12
2018-09-30T03:18:31.258Z,1016.10
2018-09-30T03:19:31.262Z,1016.10
2018-09-30T03:20:31.228Z,1016.09
2018-09-30T03:21:31.222Z,1016.06
2018-09-30T03:22:31.256Z,1016.07
2018-09-30T03:23:31.212Z,1016.04
2018-09-30T03:24:31.199Z,1016.03
2018-09-30T03:25:31.203Z,1016.02
2018-09-30T03:26:31.199Z,1016.00
2018-09-30T03:27:31.196Z,1015.95
2018-09-30T03:28:31.174Z,1015.97
2018-09-30T03:29:31.176Z,1015.95
2018-09-30T03:30:31.173Z,1015.92
2018-09-30T03:31:31.153Z,1015.91
2018-09-30T03:32:31.149Z,1015.95
2018-09-30T03:33:31.144Z,1015.95
2018-09-30T03:34:31.126Z,1015.96
2018-09-30T03:35:31.123Z,1015.94
2018-09-30T03:36:31.117Z,1015.90
2018-09-30T03:37:31.114Z,1015.90
2018-09-30T03:38:31.100Z,1015.87
2018-09-30T03:39:31.107Z,1015.95
2018-09-30T03:40:31.182Z,1015.94
2018-09-30T03:41:31.083Z,1015.97
2018-09-30T03:42:31.080Z,1015.97
2018-09-30T03:43:31.077Z,1015.93
2018-09-30T03:44:31.067Z,1015.89
2018-09-30T03:45:31.054Z,1015.89
2018-09-30T03:46:31.049Z,1015.90
2018-09-30T03:47:31.038Z,1015.92
2018-09-30T03:48:31.038Z,1015.91
2018-09-30T03:49:31.023Z,1015.93
2018-09-30T03:50:31.024Z,1015.92
2018-09-30T03:51:31.014Z,1015.86
2018-09-30T03:52:31.015Z,1015.87
2018-09-30T03:53:31.007Z,1015.86
2018-09-30T03:54:30.993Z,1015.85
2018-09-30T03:55:30.993Z,1015.84
2018-09-30T03:56:30.986Z,1015.85
2018-09-30T03:57:30.972Z,1015.82
2018-09-30T03:58:30.969Z,1015.80
2018-09-30T03:59:30.952Z,1015.76
2018-09-30T04:00:30.948Z,1015.74
2018-09-30T04:01:30.961Z,1015.76
2018-09-30T04:02:30.963Z,1015.73
2018-09-30T04:03:30.924Z,1015.75
2018-09-30T04:04:30.928Z,1015.72
2018-09-30T04:05:30.920Z,1015.71
2018-09-30T04:06:30.911Z,1015.70
2018-09-30T04:07:30.905Z,1015.69
2018-09-30T04:08:30.890Z,1015.67
2018-09-30T04:09:30.949Z,1015.64
2018-09-30T04:10:30.872Z,1015.66
2018-09-30T04:11:30.885Z,1015.63
2018-09-30T04:12:30.862Z,1015.62
2018-09-30T04:13:30.866Z,1015.62
2018-09-30T04:14:30.856Z,1015.62
2018-09-30T04:15:30.850Z,1015.62
2018-09-30T04:16:30.833Z,1015.61
2018-09-30T04:17:30.864Z,1015.60
2018-09-30T04:18:30.824Z,1015.58
2018-09-30T04:19:30.817Z,1015.58
2018-09-30T04:20:30.804Z,1015.59
2018-09-30T04:21:30.798Z,1015.56
2018-09-30T04:22:30.793Z,1015.56
2018-09-30T04:23:30.783Z,1015.56
2018-09-30T04:24:30.782Z,1015.55
2018-09-30T04:25:30.778Z,1015.53
2018-09-30T04:26:30.763Z,1015.51
2018-09-30T04:27:30.759Z,1015.50
2018-09-30T04:28:30.754Z,1015.46
2018-09-30T04:29:30.751Z,1015.49
2018-09-30T04:30:30.743Z,1015.46
2018-09-30T04:31:30.730Z,1015.48
2018-09-30T04:32:30.720Z,1015.47
2018-09-30T04:33:30.717Z,1015.44
2018-09-30T04:34:30.716Z,1015.44
2018-09-30T04:35:30.709Z,1015.46
2018-09-30T04:36:30.691Z,1015.40
2018-09-30T04:37:30.692Z,1015.36
2018-09-30T04:38:30.679Z,1015.38
2018-09-30T04:39:30.673Z,1015.37
2018-09-30T04:40:30.664Z,1015.43
2018-09-30T04:41:30.659Z,1015.45
2018-09-30T04:42:30.651Z,1015.45
2018-09-30T04:43:30.644Z,1015.45
2018-09-30T04:44:30.644Z,1015.42
2018-09-30T04:45:30.636Z,1015.42
2018-09-30T04:46:30.633Z,1015.46
2018-09-30T04:47:30.620Z,1015.45
2018-09-30T04:48:30.602Z,1015.47
2018-09-30T04:49:30.613Z,1015.49
2018-09-30T04:50:30.616Z,1015.52
2018-09-30T04:51:30.588Z,1015.51
2018-09-30T04:52:30.581Z,1015.53
2018-09-30T04:53:30.577Z,1015.53
2018-09-30T04:54:30.564Z,1015.53
2018-09-30T04:55:30.570Z,1015.51
2018-09-30T04:56:30.553Z,1015.46
2018-09-30T04:57:30.545Z,1015.44
2018-09-30T04:58:30.534Z,1015.45
2018-09-30T04:59:30.534Z,1015.47
2018-09-30T05:00:30.520Z,1015.44
2018-09-30T05:01:30.514Z,1015.45
2018-09-30T05:02:30.508Z,1015.44
2018-09-30T05:03:30.500Z,1015.45
2018-09-30T05:04:30.499Z,1015.50
2018-09-30T05:05:30.489Z,1015.43
2018-09-30T05:06:30.509Z,1015.41
2018-09-30T05:07:30.473Z,1015.41
2018-09-30T05:08:30.466Z,1015.40
2018-09-30T05:09:30.459Z,1015.42
2018-09-30T05:10:30.453Z,1015.39
2018-09-30T05:11:30.447Z,1015.44
2018-09-30T05:12:30.436Z,1015.40
2018-09-30T05:13:30.428Z,1015.40
2018-09-30T05:14:30.424Z,1015.42
2018-09-30T05:15:30.415Z,1015.41
2018-09-30T05:16:30.471Z,1015.45
2018-09-30T05:17:30.411Z,1015.42
2018-09-30T05:18:30.387Z,1015.43
2018-09-30T05:19:30.395Z,1015.42
2018-09-30T05:20:30.382Z,1015.41
2018-09-30T05:21:30.397Z,1015.38
2018-09-30T05:22:30.369Z,1015.39
2018-09-30T05:23:30.368Z,1015.44
2018-09-30T05:24:30.349Z,1015.42
2018-09-30T05:25:30.370Z,1015.44
2018-09-30T05:26:30.336Z,1015.45
2018-09-30T05:27:30.336Z,1015.46
2018-09-30T05:28:30.328Z,1015.40
2018-09-30T05:29:30.326Z,1015.40
2018-09-30T05:30:30.320Z,1015.44
2018-09-30T05:31:30.304Z,1015.40
2018-09-30T05:32:30.303Z,1015.40
2018-09-30T05:33:30.291Z,1015.41
2018-09-30T05:34:30.293Z,1015.38
2018-09-30T05:35:30.278Z,1015.36
2018-09-30T05:36:30.278Z,1015.38
2018-09-30T05:37:30.257Z,1015.42
2018-09-30T05:38:30.262Z,1015.39
2018-09-30T05:39:30.243Z,1015.39
2018-09-30T05:40:30.241Z,1015.35
2018-09-30T05:41:30.230Z,1015.34
2018-09-30T05:42:30.254Z,1015.33
2018-09-30T05:43:30.230Z,1015.33
2018-09-30T05:44:30.223Z,1015.32
2018-09-30T05:45:30.211Z,1015.32
2018-09-30T05:46:30.200Z,1015.28
2018-09-30T05:47:30.205Z,1015.24
2018-09-30T05:48:30.206Z,1015.22
2018-09-30T05:49:30.189Z,1015.23
2018-09-30T05:50:30.189Z,1015.20
2018-09-30T05:51:30.166Z,1015.18
2018-09-30T05:52:30.166Z,1015.16
2018-09-30T05:53:30.156Z,1015.18
2018-09-30T05:54:30.142Z,1015.19
2018-09-30T05:55:30.137Z,1015.23
2018-09-30T05:56:30.127Z,1015.23
2018-09-30T05:57:30.186Z,1015.23
2018-09-30T05:58:30.127Z,1015.23
2018-09-30T05:59:30.115Z,1015.19
2018-09-30T06:00:30.103Z,1015.20
2018-09-30T06:01:30.095Z,1015.22
2018-09-30T06:02:30.100Z,1015.23
2018-09-30T06:03:30.093Z,1015.27
2018-09-30T06:04:30.078Z,1015.27
2018-09-30T06:05:30.067Z,1015.31
2018-09-30T06:06:30.070Z,1015.30
2018-09-30T06:07:30.053Z,1015.28
2018-09-30T06:08:30.045Z,1015.31
2018-09-30T06:09:30.042Z,1015.34
2018-09-30T06:10:30.044Z,1015.34
2018-09-30T06:11:30.026Z,1015.35
2018-09-30T06:12:30.017Z,1015.32
2018-09-30T06:13:30.009Z,1015.36
2018-09-30T06:14:30.016Z,1015.38
2018-09-30T06:15:30.002Z,1015.39
2018-09-30T06:16:30.002Z,1015.37
2018-09-30T06:17:29.987Z,1015.36
2018-09-30T06:18:29.970Z,1015.39
2018-09-30T06:19:29.976Z,1015.40
2018-09-30T06:20:29.964Z,1015.36
2018-09-30T06:21:29.966Z,1015.37
2018-09-30T06:22:29.956Z,1015.38
2018-09-30T06:23:29.930Z,1015.41
2018-09-30T06:24:29.930Z,1015.39
2018-09-30T06:25:29.932Z,1015.44
2018-09-30T06:26:29.929Z,1015.41
2018-09-30T06:27:29.925Z,1015.44
2018-09-30T06:28:29.905Z,1015.43
2018-09-30T06:29:29.896Z,1015.42
2018-09-30T06:30:29.888Z,1015.42
2018-09-30T06:31:29.892Z,1015.41
2018-09-30T06:32:29.877Z,1015.40
2018-09-30T06:33:29.878Z,1015.41
2018-09-30T06:34:29.863Z,1015.42
2018-09-30T06:35:29.856Z,1015.45
2018-09-30T06:36:29.848Z,1015.44
2018-09-30T06:37:29.845Z,1015.44
2018-09-30T06:38:29.828Z,1015.43
2018-09-30T06:39:29.831Z,1015.39
2018-09-30T06:40:29.873Z,1015.41
2018-09-30T06:41:29.821Z,1015.40
2018-09-30T06:42:29.800Z,1015.44
2018-09-30T06:43:29.797Z,1015.43
2018-09-30T06:44:29.797Z,1015.46
2018-09-30T06:45:29.842Z,1015.40
2018-09-30T06:46:29.777Z,1015.40
2018-09-30T06:47:29.772Z,1015.40
2018-09-30T06:48:29.786Z,1015.39
2018-09-30T06:49:29.757Z,1015.36
2018-09-30T06:50:29.799Z,1015.40
2018-09-30T06:51:29.766Z,1015.39
2018-09-30T06:52:29.736Z,1015.38
2018-09-30T06:53:29.733Z,1015.42
2018-09-30T06:54:29.731Z,1015.41
2018-09-30T06:55:29.722Z,1015.41
2018-09-30T06:56:29.719Z,1015.44
2018-09-30T06:57:29.703Z,1015.45
2018-09-30T06:58:29.680Z,1015.46
2018-09-30T06:59:29.686Z,1015.44
2018-09-30T07:00:29.674Z,1015.43
2018-09-30T07:01:29.681Z,1015.41
2018-09-30T07:02:29.672Z,1015.43
2018-09-30T07:03:29.657Z,1015.41
2018-09-30T07:04:29.651Z,1015.40
2018-09-30T07:05:29.645Z,1015.38
2018-09-30T07:06:29.645Z,1015.37
2018-09-30T07:07:29.634Z,1015.34
2018-09-30T07:08:29.761Z,1015.37
2018-09-30T07:09:29.731Z,1015.32
2018-09-30T07:10:29.604Z,1015.35
2018-09-30T07:11:29.716Z,1015.39
2018-09-30T07:12:29.602Z,1015.36
2018-09-30T07:13:29.592Z,1015.35
2018-09-30T07:14:29.595Z,1015.38
2018-09-30T07:15:29.584Z,1015.38
2018-09-30T07:16:29.588Z,1015.39
2018-09-30T07:17:29.571Z,1015.40
2018-09-30T07:18:29.568Z,1015.39
2018-09-30T07:19:29.557Z,1015.40
2018-09-30T07:20:29.549Z,1015.44
2018-09-30T07:21:29.542Z,1015.43
2018-09-30T07:22:29.530Z,1015.45
2018-09-30T07:23:29.529Z,1015.46
2018-09-30T07:24:29.529Z,1015.48
2018-09-30T07:25:29.519Z,1015.47
2018-09-30T07:26:29.492Z,1015.46
2018-09-30T07:27:29.518Z,1015.45
2018-09-30T07:28:29.490Z,1015.44
2018-09-30T07:29:29.481Z,1015.43
2018-09-30T07:30:29.478Z,1015.40
2018-09-30T07:31:29.471Z,1015.39
2018-09-30T07:32:29.457Z,1015.41
2018-09-30T07:33:29.445Z,1015.40
2018-09-30T07:34:29.444Z,1015.44
2018-09-30T07:35:29.442Z,1015.41
2018-09-30T07:36:29.430Z,1015.41
2018-09-30T07:37:29.427Z,1015.37
2018-09-30T07:38:29.425Z,1015.34
2018-09-30T07:39:29.458Z,1015.37
2018-09-30T07:40:29.424Z,1015.31
2018-09-30T07:41:29.404Z,1015.30
2018-09-30T07:42:29.397Z,1015.33
2018-09-30T07:43:29.379Z,1015.33
2018-09-30T07:44:29.378Z,1015.35
2018-09-30T07:45:29.367Z,1015.34
2018-09-30T07:46:29.367Z,1015.34
2018-09-30T07:47:29.356Z,1015.26
2018-09-30T07:48:29.358Z,1015.31
2018-09-30T07:49:29.341Z,1015.31
2018-09-30T07:50:29.332Z,1015.26
2018-09-30T07:51:29.331Z,1015.25
2018-09-30T07:52:29.389Z,1015.24
2018-09-30T07:53:29.312Z,1015.23
2018-09-30T07:54:29.301Z,1015.23
2018-09-30T07:55:29.311Z,1015.24
2018-09-30T07:56:29.302Z,1015.20
2018-09-30T07:57:29.293Z,1015.25
2018-09-30T07:58:29.284Z,1015.25
2018-09-30T07:59:29.269Z,1015.31
2018-09-30T08:00:29.276Z,1015.28
2018-09-30T08:01:29.259Z,1015.27
2018-09-30T08:02:29.265Z,1015.34
2018-09-30T08:03:29.240Z,1015.36
2018-09-30T08:04:29.256Z,1015.39
2018-09-30T08:05:29.248Z,1015.34
2018-09-30T08:06:29.321Z,1015.39
2018-09-30T08:07:29.233Z,1015.41
2018-09-30T08:08:29.220Z,1015.37
2018-09-30T08:09:29.212Z,1015.41
2018-09-30T08:10:29.197Z,1015.40
2018-09-30T08:11:29.203Z,1015.37
2018-09-30T08:12:29.200Z,1015.37
2018-09-30T08:13:29.187Z,1015.38
2018-09-30T08:14:29.181Z,1015.36
2018-09-30T08:15:29.167Z,1015.32
2018-09-30T08:16:29.193Z,1015.20
2018-09-30T08:17:29.158Z,1015.19
2018-09-30T08:18:29.150Z,1015.21
2018-09-30T08:19:29.139Z,1015.15
2018-09-30T08:20:29.151Z,1015.18
2018-09-30T08:21:29.130Z,1015.16
2018-09-30T08:22:29.198Z,1015.17
2018-09-30T08:23:29.134Z,1015.12
2018-09-30T08:24:29.158Z,1015.10
2018-09-30T08:25:29.107Z,1015.10
2018-09-30T08:26:29.118Z,1015.06
2018-09-30T08:27:29.094Z,1015.10
2018-09-30T08:28:29.097Z,1015.10
2018-09-30T08:29:29.084Z,1015.09
2018-09-30T08:30:29.080Z,1015.10
2018-09-30T08:31:29.064Z,1015.09
2018-09-30T08:32:29.069Z,1015.13
2018-09-30T08:33:29.063Z,1015.13
2018-09-30T08:34:29.098Z,1015.14
2018-09-30T08:35:29.061Z,1015.13
2018-09-30T08:36:29.066Z,1015.17
2018-09-30T08:37:29.054Z,1015.14
2018-09-30T08:38:29.044Z,1015.18
2018-09-30T08:39:29.092Z,1015.17
2018-09-30T08:40:29.021Z,1015.17
2018-09-30T08:41:29.012Z,1015.18
2018-09-30T08:42:29.011Z,1015.17
2018-09-30T08:43:29.000Z,1015.14
2018-09-30T08:44:29.001Z,1015.15
2018-09-30T08:45:29.005Z,1015.11
2018-09-30T08:46:28.985Z,1015.12
2018-09-30T08:47:29.135Z,1015.13
2018-09-30T08:48:28.970Z,1015.10
2018-09-30T08:49:28.971Z,1015.07
2018-09-30T08:50:28.958Z,1015.07
2018-09-30T08:51:28.945Z,1015.03
2018-09-30T08:52:28.966Z,1015.03
2018-09-30T08:53:28.945Z,1015.01
2018-09-30T08:54:28.939Z,1015.01
2018-09-30T08:55:28.929Z,1015.01
2018-09-30T08:56:28.932Z,1015.05
2018-09-30T08:57:28.918Z,1015.05
2018-09-30T08:58:28.909Z,1015.07
2018-09-30T08:59:28.910Z,1015.10
2018-09-30T09:00:28.900Z,1015.06
2018-09-30T09:01:28.887Z,1015.09
2018-09-30T09:02:28.891Z,1015.07
2018-09-30T09:03:28.876Z,1015.03
2018-09-30T09:04:28.872Z,1015.08
2018-09-30T09:05:28.878Z,1015.01
2018-09-30T09:06:28.864Z,1015.02
2018-09-30T09:07:28.868Z,1014.99
2018-09-30T09:08:28.890Z,1014.94
2018-09-30T09:09:28.861Z,1014.93
2018-09-30T09:10:28.863Z,1014.94
2018-09-30T09:11:28.843Z,1014.90
2018-09-30T09:12:28.860Z,1014.97
2018-09-30T09:13:28.824Z,1014.93
2018-09-30T09:14:28.822Z,1014.93
2018-09-30T09:15:28.819Z,1014.95
2018-09-30T09:16:28.799Z,1014.93
2018-09-30T09:17:28.795Z,1014.96
2018-09-30T09:18:28.785Z,1014.94
2018-09-30T09:19:28.784Z,1014.93
2018-09-30T09:20:28.774Z,1014.89
2018-09-30T09:21:28.770Z,1014.88
2018-09-30T09:22:28.842Z,1014.91
2018-09-30T09:23:28.784Z,1014.84
2018-09-30T09:24:28.782Z,1014.87
2018-09-30T09:25:28.755Z,1014.85
2018-09-30T09:26:28.738Z,1014.85
2018-09-30T09:27:28.741Z,1014.83
2018-09-30T09:28:28.723Z,1014.83
2018-09-30T09:29:28.723Z,1014.83
2018-09-30T09:30:28.719Z,1014.78
2018-09-30T09:31:28.729Z,1014.84
2018-09-30T09:32:28.703Z,1014.86
2018-09-30T09:33:28.691Z,1014.84
2018-09-30T09:34:28.716Z,1014.79
2018-09-30T09:35:28.682Z,1014.81
2018-09-30T09:36:28.699Z,1014.82
2018-09-30T09:37:28.686Z,1014.78
2018-09-30T09:38:28.725Z,1014.82
2018-09-30T09:39:28.651Z,1014.79
2018-09-30T09:40:28.658Z,1014.78
2018-09-30T09:41:28.656Z,1014.75
2018-09-30T09:42:28.636Z,1014.76
2018-09-30T09:43:28.646Z,1014.76
2018-09-30T09:44:28.646Z,1014.74
2018-09-30T09:45:28.627Z,1014.71
2018-09-30T09:46:28.625Z,1014.75
2018-09-30T09:47:28.611Z,1014.70
2018-09-30T09:48:28.599Z,1014.71
2018-09-30T09:49:28.596Z,1014.70
2018-09-30T09:50:28.593Z,1014.67
2018-09-30T09:51:28.593Z,1014.68
2018-09-30T09:52:28.640Z,1014.63
2018-09-30T09:53:28.582Z,1014.61
2018-09-30T09:54:28.566Z,1014.58
2018-09-30T09:55:28.580Z,1014.51
2018-09-30T09:56:28.549Z,1014.48
2018-09-30T09:57:28.542Z,1014.47
2018-09-30T09:58:28.545Z,1014.49
2018-09-30T09:59:28.557Z,1014.50
2018-09-30T10:00:28.537Z,1014.49
2018-09-30T10:01:28.528Z,1014.46
2018-09-30T10:02:28.518Z,1014.48
2018-09-30T10:03:28.528Z,1014.48
2018-09-30T10:04:28.517Z,1014.47
2018-09-30T10:05:28.528Z,1014.50
2018-09-30T10:06:28.485Z,1014.46
2018-09-30T10:07:28.481Z,1014.40
2018-09-30T10:08:28.485Z,1014.37
2018-09-30T10:09:28.474Z,1014.35
2018-09-30T10:10:28.477Z,1014.39
2018-09-30T10:11:28.484Z,1014.35
2018-09-30T10:12:28.466Z,1014.38
2018-09-30T10:13:28.460Z,1014.36
2018-09-30T10:14:28.446Z,1014.35
2018-09-30T10:15:28.442Z,1014.32
2018-09-30T10:16:28.467Z,1014.29
2018-09-30T10:17:28.425Z,1014.29
2018-09-30T10:18:28.430Z,1014.28
2018-09-30T10:19:28.429Z,1014.27
2018-09-30T10:20:28.434Z,1014.27
2018-09-30T10:21:28.453Z,1014.26
2018-09-30T10:22:28.499Z,1014.25
2018-09-30T10:23:28.510Z,1014.22
2018-09-30T10:24:28.396Z,1014.22
2018-09-30T10:25:28.378Z,1014.23
2018-09-30T10:26:28.385Z,1014.17
2018-09-30T10:27:28.406Z,1014.17
2018-09-30T10:28:28.373Z,1014.15
2018-09-30T10:29:28.441Z,1014.15
2018-09-30T10:30:28.457Z,1014.15
2018-09-30T10:31:28.343Z,1014.12
2018-09-30T10:32:28.431Z,1014.16
2018-09-30T10:33:28.444Z,1014.13
2018-09-30T10:34:28.442Z,1014.11
2018-09-30T10:35:28.316Z,1014.10
2018-09-30T10:36:28.444Z,1014.13
2018-09-30T10:37:28.331Z,1014.10
2018-09-30T10:38:28.453Z,1014.09
2018-09-30T10:39:28.322Z,1014.05
2018-09-30T10:40:28.420Z,1014.02
2018-09-30T10:41:28.396Z,1013.98
2018-09-30T10:42:28.409Z,1013.95
2018-09-30T10:43:28.410Z,1013.93
2018-09-30T10:44:28.382Z,1013.95
2018-09-30T10:45:28.277Z,1013.94
2018-09-30T10:46:28.254Z,1013.97
2018-09-30T10:47:28.242Z,1013.97
2018-09-30T10:48:28.254Z,1013.94
2018-09-30T10:49:28.298Z,1013.92
2018-09-30T10:50:28.234Z,1013.93
2018-09-30T10:51:28.224Z,1013.94
2018-09-30T10:52:28.226Z,1013.94
2018-09-30T10:53:28.215Z,1013.94
2018-09-30T10:54:28.215Z,1013.94
2018-09-30T10:55:28.286Z,1013.95
2018-09-30T10:56:28.228Z,1013.91
2018-09-30T10:57:28.192Z,1013.93
2018-09-30T10:58:28.190Z,1013.92
2018-09-30T10:59:28.196Z,1013.98
2018-09-30T11:00:28.164Z,1013.91
2018-09-30T11:01:28.159Z,1013.92
2018-09-30T11:02:28.152Z,1013.86
2018-09-30T11:03:28.202Z,1013.88
2018-09-30T11:04:28.166Z,1013.80
2018-09-30T11:05:28.144Z,1013.81
2018-09-30T11:06:28.134Z,1013.81
2018-09-30T11:07:28.128Z,1013.78
2018-09-30T11:08:28.118Z,1013.74
2018-09-30T11:09:28.124Z,1013.73
2018-09-30T11:10:28.126Z,1013.74
2018-09-30T11:11:28.109Z,1013.74
2018-09-30T11:12:28.104Z,1013.76
2018-09-30T11:13:28.086Z,1013.75
2018-09-30T11:14:28.097Z,1013.73
2018-09-30T11:15:28.095Z,1013.71
2018-09-30T11:16:28.076Z,1013.70
2018-09-30T11:17:28.065Z,1013.69
2018-09-30T11:18:28.151Z,1013.66
2018-09-30T11:19:28.057Z,1013.62
2018-09-30T11:20:28.047Z,1013.63
2018-09-30T11:21:28.052Z,1013.59
2018-09-30T11:22:28.123Z,1013.54
2018-09-30T11:23:28.029Z,1013.53
2018-09-30T11:24:28.034Z,1013.50
2018-09-30T11:25:28.043Z,1013.46
2018-09-30T11:26:28.031Z,1013.43
2018-09-30T11:27:28.010Z,1013.41
2018-09-30T11:28:28.030Z,1013.39
2018-09-30T11:29:28.002Z,1013.34
2018-09-30T11:30:27.992Z,1013.23
2018-09-30T11:31:27.976Z,1013.27
2018-09-30T11:32:27.968Z,1013.29
2018-09-30T11:33:28.040Z,1013.23
2018-09-30T11:34:27.957Z,1013.25
2018-09-30T11:35:27.999Z,1013.26
2018-09-30T11:36:28.008Z,1013.24
2018-09-30T11:37:27.940Z,1013.24
2018-09-30T11:38:27.953Z,1013.27
2018-09-30T11:39:27.934Z,1013.23
2018-09-30T11:40:27.926Z,1013.21
2018-09-30T11:41:27.946Z,1013.19
2018-09-30T11:42:27.921Z,1013.18
2018-09-30T11:43:27.905Z,1013.24
2018-09-30T11:44:27.935Z,1013.18
2018-09-30T11:45:27.896Z,1013.18
2018-09-30T11:46:27.883Z,1013.18
2018-09-30T11:47:27.919Z,1013.16
2018-09-30T11:48:27.889Z,1013.12
2018-09-30T11:49:27.872Z,1013.10
2018-09-30T11:50:27.876Z,1013.11
2018-09-30T11:51:27.856Z,1013.11
2018-09-30T11:52:27.874Z,1013.10
2018-09-30T11:53:27.855Z,1013.07
2018-09-30T11:54:27.842Z,1013.07
2018-09-30T11:55:27.833Z,1013.07
2018-09-30T11:56:27.839Z,1013.00
2018-09-30T11:57:27.825Z,1013.00
2018-09-30T11:58:27.827Z,1013.00
2018-09-30T11:59:27.810Z,1013.01
2018-09-30T12:00:27.804Z,1012.97
2018-09-30T12:01:27.807Z,1012.98
2018-09-30T12:02:27.790Z,1012.98
2018-09-30T12:03:27.789Z,1012.92
2018-09-30T12:04:27.793Z,1012.90
2018-09-30T12:05:27.777Z,1012.92